Time;durP1;ratioP1;P1;durP2;ratioP2;P2;SDS_P1;SDS_P2;PMS_P1;PMS_P2;Temp;Humidity;BMP_temperature;BMP_pressure;BME280_temperature;BME280_humidity;BME280_pressure;Samples;Min_cycle;Max_cycle;Signal;HPM_P1;HPM_P2
2023/03/14 00:00:57;;;;;;;12.80;2.30;;;11.20;99.90;;;;;;6127669;23;20418;-78
2023/03/14 00:03:24;;;;;;;11.03;2.27;;;11.30;99.90;;;;;;6128278;23;20418;-78
2023/03/14 00:05:51;;;;;;;11.53;2.33;;;11.60;99.90;;;;;;6154224;23;20925;-78
2023/03/14 00:08:21;;;;;;;9.20;1.90;;;11.50;99.90;;;;;;6154588;23;20433;-78
2023/03/14 00:10:48;;;;;;;13.30;3.30;;;11.60;99.90;;;;;;6154266;23;20417;-78
2023/03/14 00:13:15;;;;;;;8.27;1.90;;;11.50;99.90;;;;;;6154429;23;20502;-78
2023/03/14 00:15:43;;;;;;;8.40;2.00;;;11.50;99.90;;;;;;6154413;23;20434;-78
2023/03/14 00:18:10;;;;;;;8.57;2.10;;;11.40;99.90;;;;;;6154362;23;20433;-78
2023/03/14 00:20:37;;;;;;;8.90;3.07;;;11.40;99.90;;;;;;6154139;23;20421;-78
2023/03/14 00:23:04;;;;;;;7.97;1.70;;;11.40;99.90;;;;;;6153863;23;20414;-78
2023/03/14 00:25:32;;;;;;;11.10;2.30;;;11.60;99.90;;;;;;6154548;23;20414;-78
2023/03/14 00:28:02;;;;;;;13.83;2.47;;;11.80;99.90;;;;;;6153820;23;20441;-78
2023/03/14 00:30:30;;;;;;;11.00;2.00;;;11.80;99.90;;;;;;6154140;23;20502;-78
2023/03/14 00:32:57;;;;;;;5.23;1.80;;;11.90;99.90;;;;;;6154050;23;20418;-78
2023/03/14 00:35:24;;;;;;;4.83;1.17;;;12.10;99.90;;;;;;6153877;23;20428;-78
2023/03/14 00:37:53;;;;;;;4.93;1.80;;;11.60;99.90;;;;;;6153482;23;20441;-79
2023/03/14 00:40:23;;;;;;;5.83;1.00;;;11.00;99.90;;;;;;6153866;23;20501;-79
2023/03/14 00:42:52;;;;;;;6.07;1.40;;;9.80;99.90;;;;;;6166057;23;21068;-79
2023/03/14 00:45:25;;;;;;;5.80;2.07;;;9.00;99.90;;;;;;6156032;23;20422;-79
2023/03/14 00:47:55;;;;;;;8.87;6.27;;;8.70;99.90;;;;;;6155387;23;20433;-78
2023/03/14 00:50:24;;;;;;;32.77;31.23;;;8.60;99.90;;;;;;6129652;23;20425;-78
2023/03/14 00:52:51;;;;;;;115.30;111.03;;;8.50;99.90;;;;;;6156330;23;20420;-77
2023/03/14 00:55:23;;;;;;;205.73;199.27;;;8.50;99.90;;;;;;6155601;23;20505;-78
2023/03/14 00:57:51;;;;;;;288.03;278.40;;;8.50;99.90;;;;;;6155883;23;20464;-77
2023/03/14 01:00:21;;;;;;;399.97;385.33;;;8.40;99.90;;;;;;6155971;23;20468;-78
2023/03/14 01:02:48;;;;;;;498.43;476.43;;;8.40;99.90;;;;;;6155503;23;20414;-78
2023/03/14 01:05:15;;;;;;;568.90;538.93;;;8.50;99.90;;;;;;6130019;23;20420;-78
2023/03/14 01:07:41;;;;;;;597.50;560.90;;;8.60;99.90;;;;;;6155669;23;20437;-78
2023/03/14 01:10:20;;;;;;;588.00;552.00;;;8.70;99.90;;;;;;6155635;23;20424;-78
2023/03/14 01:12:47;;;;;;;558.57;526.07;;;8.80;99.90;;;;;;6156281;23;20421;-78
2023/03/14 01:15:16;;;;;;;571.93;537.17;;;8.80;99.90;;;;;;6156128;23;20496;-78
2023/03/14 01:17:45;;;;;;;575.23;540.00;;;8.70;99.90;;;;;;6154023;23;20441;-78
2023/03/14 01:20:16;;;;;;;577.27;541.07;;;8.80;99.90;;;;;;6153949;23;20500;-78
2023/03/14 01:22:44;;;;;;;555.37;522.40;;;8.70;99.90;;;;;;6154251;23;20414;-78
2023/03/14 01:25:15;;;;;;;556.93;524.10;;;8.70;99.90;;;;;;6154200;23;20453;-78
2023/03/14 01:27:43;;;;;;;555.40;521.93;;;8.70;99.90;;;;;;6155934;23;20430;-78
2023/03/14 01:30:13;;;;;;;531.40;500.80;;;8.70;99.90;;;;;;6155817;23;20500;-78
2023/03/14 01:32:41;;;;;;;520.37;491.50;;;8.60;99.90;;;;;;6129552;23;20422;-78
2023/03/14 01:35:12;;;;;;;521.60;491.93;;;8.70;99.90;;;;;;6155631;23;20508;-78
2023/03/14 01:37:39;;;;;;;428.40;409.57;;;8.60;99.90;;;;;;6165177;23;20922;-78
2023/03/14 01:40:08;;;;;;;426.13;406.87;;;8.70;99.90;;;;;;6155368;23;20497;-78
2023/03/14 01:42:35;;;;;;;417.03;397.97;;;8.80;99.90;;;;;;6155802;23;20418;-78
2023/03/14 01:45:03;;;;;;;412.87;394.63;;;8.80;99.90;;;;;;6155393;23;20906;-78
2023/03/14 01:47:30;;;;;;;404.93;387.30;;;8.70;99.90;;;;;;6153428;23;20457;-78
2023/03/14 01:50:02;;;;;;;377.20;361.40;;;8.70;99.90;;;;;;6155757;23;20445;-78
2023/03/14 01:52:34;;;;;;;376.20;360.57;;;8.80;99.90;;;;;;6164839;23;20422;-78
2023/03/14 01:55:06;;;;;;;366.83;352.83;;;8.80;99.90;;;;;;6155871;23;20398;-78
2023/03/14 01:57:38;;;;;;;400.80;384.43;;;8.70;99.90;;;;;;6165077;23;20993;-78
2023/03/14 02:00:11;;;;;;;407.87;392.43;;;8.60;99.90;;;;;;6155612;23;20398;-78
2023/03/14 02:02:40;;;;;;;447.43;429.40;;;8.60;99.90;;;;;;6155381;23;20434;-78
2023/03/14 02:05:16;;;;;;;482.10;460.93;;;8.60;99.90;;;;;;6155737;23;20414;-78
2023/03/14 02:07:49;;;;;;;482.83;462.13;;;8.60;99.90;;;;;;6155383;23;20505;-78
2023/03/14 02:10:22;;;;;;;437.13;419.63;;;8.60;99.90;;;;;;6155390;23;20398;-78
2023/03/14 02:12:51;;;;;;;334.43;322.73;;;8.70;99.90;;;;;;6155248;23;20482;-78
2023/03/14 02:15:24;;;;;;;344.93;332.77;;;8.80;99.90;;;;;;6155237;23;21006;-78
2023/03/14 02:17:52;;;;;;;323.97;313.10;;;8.60;99.90;;;;;;6155112;23;21047;-78
2023/03/14 02:20:29;;;;;;;316.30;305.40;;;8.60;99.90;;;;;;6155127;23;20493;-78
2023/03/14 02:22:56;;;;;;;363.87;350.47;;;8.60;99.90;;;;;;6129378;23;20405;-78
2023/03/14 02:25:29;;;;;;;356.83;343.97;;;8.60;99.90;;;;;;6155477;23;20414;-78
2023/03/14 02:27:58;;;;;;;403.17;388.00;;;8.80;99.90;;;;;;6155385;23;20504;-78
2023/03/14 02:30:27;;;;;;;447.90;429.57;;;8.80;99.90;;;;;;6155198;23;20421;-78
2023/03/14 02:33:00;;;;;;;429.73;412.53;;;8.80;99.90;;;;;;6129144;23;20414;-78
2023/03/14 03:01:23;;;;;;;324.57;313.30;;;9.20;99.90;;;;;;6152713;23;20446;-86
2023/03/14 03:03:51;;;;;;;355.50;342.33;;;9.20;99.90;;;;;;6125814;23;20421;-86
2023/03/14 03:06:18;;;;;;;356.10;343.60;;;9.10;99.90;;;;;;6135188;23;20421;-85
2023/03/14 04:29:06;;;;;;;496.57;474.47;;;8.90;99.90;;;;;;6152429;23;20429;-84
2023/03/14 04:31:36;;;;;;;514.17;490.07;;;9.00;99.90;;;;;;6125091;23;20420;-87
2023/03/14 04:34:08;;;;;;;574.63;542.90;;;9.00;99.90;;;;;;6124698;23;20425;-87
2023/03/14 04:36:38;;;;;;;510.73;487.47;;;9.00;99.90;;;;;;6134318;23;20930;-85
2023/03/14 04:39:06;;;;;;;442.53;424.47;;;9.10;99.90;;;;;;6143441;23;20461;-87
2023/03/14 04:41:36;;;;;;;444.10;426.73;;;9.10;99.90;;;;;;6154845;23;20473;-87
2023/03/14 05:08:30;;;;;;;428.07;411.27;;;9.20;99.90;;;;;;6164080;23;20394;-84
2023/03/14 05:10:58;;;;;;;418.10;401.60;;;9.20;99.90;;;;;;6095495;23;20396;-85
2023/03/14 05:13:25;;;;;;;433.77;416.20;;;9.20;99.90;;;;;;6095515;23;20413;-85
2023/03/14 05:15:55;;;;;;;455.73;436.93;;;9.10;99.90;;;;;;6094138;23;20419;-85
2023/03/14 05:18:21;;;;;;;395.77;380.70;;;9.30;99.90;;;;;;6110100;23;20483;-85
2023/03/14 05:20:53;;;;;;;414.83;398.17;;;9.20;99.90;;;;;;6124974;23;20414;-84
2023/03/14 05:23:20;;;;;;;418.30;401.50;;;9.30;99.90;;;;;;6125308;23;20405;-85
2023/03/14 05:25:52;;;;;;;394.23;378.50;;;9.20;99.90;;;;;;6099820;23;20439;-85
2023/03/14 06:08:26;;;;;;;423.37;405.97;;;9.50;99.90;;;;;;6158224;23;20441;-85
2023/03/14 06:10:54;;;;;;;375.80;360.97;;;9.40;99.90;;;;;;6155560;23;20894;-86
2023/03/14 06:13:22;;;;;;;369.93;355.13;;;9.60;99.90;;;;;;6155667;23;20910;-85
2023/03/14 06:15:54;;;;;;;354.87;340.67;;;9.60;99.90;;;;;;6165574;23;20825;-85
2023/03/14 06:18:21;;;;;;;267.57;257.83;;;9.80;99.90;;;;;;6155871;23;20448;-85
2023/03/14 06:20:50;;;;;;;288.27;277.80;;;9.80;99.90;;;;;;6155371;23;20414;-86
2023/03/14 06:23:17;;;;;;;291.23;280.70;;;9.70;99.90;;;;;;6156042;23;20804;-86
2023/03/14 06:25:46;;;;;;;286.43;275.93;;;9.60;99.90;;;;;;6155837;23;20492;-85
2023/03/14 06:28:15;;;;;;;269.50;259.90;;;9.70;99.90;;;;;;6153952;23;20810;-85
2023/03/14 06:30:44;;;;;;;258.93;249.77;;;9.80;99.90;;;;;;6130072;23;20468;-87
2023/03/14 06:33:11;;;;;;;282.10;272.00;;;9.90;99.90;;;;;;6156692;23;20421;-84
2023/03/14 06:35:40;;;;;;;274.40;264.50;;;10.00;99.90;;;;;;6154796;23;20445;-86
2023/03/14 06:38:08;;;;;;;256.67;247.57;;;10.00;99.90;;;;;;6153714;23;20445;-86
2023/03/14 06:40:35;;;;;;;243.37;235.07;;;10.20;99.90;;;;;;6152705;23;21280;-86
2023/03/14 06:43:03;;;;;;;243.13;234.83;;;10.30;99.90;;;;;;6128443;23;20452;-86
2023/03/14 06:45:30;;;;;;;188.17;181.87;;;10.30;99.90;;;;;;6155660;23;20418;-85
2023/03/14 06:47:59;;;;;;;161.30;155.90;;;10.40;99.90;;;;;;6153720;23;20440;-85
2023/03/14 06:50:27;;;;;;;145.37;140.57;;;10.30;99.90;;;;;;6153206;23;20414;-85
2023/03/14 06:52:54;;;;;;;153.77;148.67;;;10.40;99.90;;;;;;6154899;23;20457;-86
2023/03/14 06:55:22;;;;;;;141.47;136.83;;;10.30;99.90;;;;;;6154760;23;20941;-85
2023/03/14 07:03:00;;;;;;;159.20;154.00;;;10.50;99.90;;;;;;6137885;23;20438;-85
2023/03/14 07:05:27;;;;;;;149.77;144.87;;;10.60;99.90;;;;;;6126273;23;20415;-85
2023/03/14 07:07:55;;;;;;;149.07;144.20;;;10.50;99.90;;;;;;6108506;23;20461;-86
2023/03/14 07:10:23;;;;;;;152.80;147.77;;;10.70;99.90;;;;;;6154891;23;20910;-86
2023/03/14 07:12:52;;;;;;;157.00;151.80;;;10.60;99.90;;;;;;6154144;23;20494;-86
2023/03/14 07:15:20;;;;;;;168.57;163.07;;;10.50;99.90;;;;;;6130064;23;20410;-86
2023/03/14 07:17:47;;;;;;;144.67;139.93;;;10.60;99.90;;;;;;6155018;23;20476;-86
2023/03/14 07:20:25;;;;;;;182.43;176.50;;;10.70;99.90;;;;;;6155392;23;20501;-85
2023/03/14 07:22:54;;;;;;;170.50;164.90;;;10.90;99.90;;;;;;6155123;23;20808;-84
2023/03/14 07:25:22;;;;;;;166.30;160.80;;;11.00;99.90;;;;;;6154374;23;20429;-85
2023/03/14 07:27:49;;;;;;;118.07;114.20;;;11.10;99.90;;;;;;6154878;23;20452;-85
2023/03/14 07:30:18;;;;;;;126.40;122.27;;;11.10;99.90;;;;;;6152508;23;20418;-87
2023/03/14 07:32:45;;;;;;;103.53;100.03;;;11.20;99.90;;;;;;6155204;23;20934;-86
2023/03/14 07:35:15;;;;;;;84.23;81.33;;;11.30;99.90;;;;;;6128953;23;20485;-86
2023/03/14 07:37:44;;;;;;;61.20;59.00;;;11.30;99.90;;;;;;6154642;23;21061;-86
2023/03/14 07:40:14;;;;;;;60.53;57.77;;;11.30;99.90;;;;;;6154462;23;20441;-86
2023/03/14 07:42:43;;;;;;;56.40;54.30;;;11.20;99.90;;;;;;6155265;23;20438;-86
2023/03/14 07:45:11;;;;;;;50.73;48.83;;;11.30;99.90;;;;;;6154399;23;20422;-86
2023/03/14 07:47:38;;;;;;;48.03;46.23;;;11.30;99.90;;;;;;6153969;23;20484;-86
2023/03/14 07:50:06;;;;;;;39.13;37.63;;;11.40;99.90;;;;;;6153948;23;20483;-86
2023/03/14 07:52:34;;;;;;;41.67;40.07;;;11.40;99.90;;;;;;6152137;23;20500;-86
2023/03/14 07:55:05;;;;;;;39.90;38.27;;;11.50;99.90;;;;;;6152565;23;20420;-86
2023/03/14 07:57:33;;;;;;;37.70;36.10;;;11.60;99.90;;;;;;6152899;23;20464;-87
2023/03/14 08:00:00;;;;;;;32.60;31.30;;;11.70;99.90;;;;;;6153742;23;20789;-86
2023/03/14 08:02:27;;;;;;;36.40;34.90;;;11.80;99.90;;;;;;6154009;23;20449;-86
2023/03/14 08:04:54;;;;;;;31.83;30.53;;;12.00;99.90;;;;;;6154471;23;20414;-85
2023/03/14 08:07:22;;;;;;;14.13;13.43;;;12.10;99.90;;;;;;6153487;23;20449;-86
2023/03/14 08:09:51;;;;;;;12.10;11.40;;;12.10;99.90;;;;;;6154385;23;20421;-86
2023/03/14 08:12:23;;;;;;;7.43;6.93;;;11.90;99.90;;;;;;6152525;23;20410;-86
2023/03/14 08:14:50;;;;;;;5.43;4.93;;;11.90;99.90;;;;;;6127893;23;20501;-86
2023/03/14 08:17:17;;;;;;;6.50;3.90;;;12.00;99.90;;;;;;6154277;23;20524;-86
2023/03/14 08:19:44;;;;;;;3.70;3.10;;;11.90;99.90;;;;;;6154024;23;20418;-86
2023/03/14 08:22:14;;;;;;;4.60;3.87;;;11.60;99.90;;;;;;6153432;23;20436;-87
2023/03/14 08:24:42;;;;;;;4.90;4.50;;;11.70;99.90;;;;;;6128870;23;20394;-86
2023/03/14 08:27:11;;;;;;;5.83;5.43;;;11.70;99.90;;;;;;6155036;23;20481;-87
2023/03/14 08:29:50;;;;;;;7.40;6.80;;;11.70;99.90;;;;;;6155211;23;20410;-91
2023/03/14 08:32:17;;;;;;;7.37;6.77;;;11.80;99.90;;;;;;6163924;23;20733;-86
2023/03/14 08:34:44;;;;;;;7.07;6.40;;;11.90;99.90;;;;;;6154036;23;20417;-86
2023/03/14 08:37:11;;;;;;;4.70;4.20;;;12.10;99.90;;;;;;6153429;23;21013;-86
2023/03/14 08:39:41;;;;;;;5.63;5.13;;;12.20;99.90;;;;;;6154314;23;20417;-87
2023/03/14 08:42:09;;;;;;;4.50;4.10;;;12.30;99.90;;;;;;6154030;23;20492;-87
2023/03/14 08:44:37;;;;;;;3.93;3.20;;;12.20;99.90;;;;;;6128313;23;20930;-86
2023/03/14 08:47:08;;;;;;;4.30;3.90;;;12.10;99.90;;;;;;6154739;23;20413;-87
2023/03/14 08:49:35;;;;;;;6.43;5.93;;;11.90;99.90;;;;;;6155236;23;20508;-87
2023/03/14 08:52:10;;;;;;;15.37;14.47;;;11.70;99.90;;;;;;6154324;23;20496;-87
2023/03/14 08:54:41;;;;;;;44.63;42.87;;;11.60;99.90;;;;;;6128356;23;20480;-87
2023/03/14 08:57:13;;;;;;;92.60;89.33;;;11.50;99.90;;;;;;6154273;23;20418;-88
2023/03/14 08:59:40;;;;;;;138.47;133.97;;;11.40;99.90;;;;;;6153699;23;20413;-87
2023/03/14 09:02:11;;;;;;;198.37;191.77;;;11.40;99.90;;;;;;6153522;23;20496;-87
2023/03/14 09:04:39;;;;;;;268.33;259.37;;;11.30;99.90;;;;;;6130599;23;20493;-88
2023/03/14 09:07:06;;;;;;;270.40;261.50;;;11.20;99.90;;;;;;6156377;23;21001;-87
2023/03/14 09:09:39;;;;;;;234.40;227.03;;;10.90;99.90;;;;;;6154326;23;20438;-88
2023/03/14 09:12:06;;;;;;;265.10;256.63;;;10.50;99.90;;;;;;6156638;23;20421;-89
2023/03/14 09:14:34;;;;;;;232.27;224.87;;;10.40;99.90;;;;;;6156964;23;20417;-88
2023/03/14 09:17:11;;;;;;;129.90;125.57;;;10.10;99.90;;;;;;6156272;23;20449;-89
2023/03/14 09:19:40;;;;;;;62.17;59.90;;;9.70;99.90;;;;;;6152246;23;20430;-87
2023/03/14 09:22:07;;;;;;;36.83;35.33;;;9.30;99.90;;;;;;6155432;23;20410;-87
2023/03/14 09:24:35;;;;;;;53.77;51.77;;;8.90;99.90;;;;;;6154063;23;20493;-85
2023/03/14 09:27:07;;;;;;;16.47;15.63;;;8.60;99.90;;;;;;6156082;23;20409;-86
2023/03/14 09:29:47;;;;;;;20.00;19.10;;;8.20;99.90;;;;;;6155764;23;20426;-86
2023/03/14 09:32:18;;;;;;;56.70;54.63;;;8.00;99.90;;;;;;6155235;23;20409;-87
2023/03/14 09:34:47;;;;;;;88.73;85.63;;;7.90;99.90;;;;;;6155445;23;20643;-88
2023/03/14 09:37:16;;;;;;;207.03;199.67;;;7.90;99.90;;;;;;6155987;23;20480;-87
2023/03/14 09:39:48;;;;;;;292.07;280.97;;;7.80;99.90;;;;;;6153895;23;20468;-87
2023/03/14 09:42:22;;;;;;;197.80;191.00;;;7.80;99.90;;;;;;6155614;23;20394;-86
2023/03/14 09:44:57;;;;;;;375.17;360.20;;;7.90;99.90;;;;;;6154161;23;20754;-87
2023/03/14 09:47:31;;;;;;;279.30;269.00;;;8.10;99.90;;;;;;6155533;23;20405;-88
2023/03/14 09:49:59;;;;;;;311.17;299.17;;;8.10;99.90;;;;;;6155540;23;20946;-88
2023/03/14 09:52:33;;;;;;;426.97;408.17;;;8.10;99.90;;;;;;6155670;23;20406;-87
2023/03/14 09:55:04;;;;;;;242.30;232.60;;;8.30;99.90;;;;;;6155874;23;20449;-88
2023/03/14 09:57:39;;;;;;;230.97;222.17;;;8.10;99.90;;;;;;6155098;23;20442;-88
2023/03/14 10:00:18;;;;;;;178.60;171.90;;;8.10;99.90;;;;;;6155186;23;20874;-87
2023/03/14 10:02:55;;;;;;;221.97;213.30;;;8.00;99.90;;;;;;6154919;23;20449;-88
2023/03/14 10:05:27;;;;;;;349.60;335.80;;;7.90;99.90;;;;;;6129613;23;20502;-88
2023/03/14 10:07:58;;;;;;;322.73;309.33;;;8.00;99.90;;;;;;6128932;23;20942;-87
2023/03/14 10:10:26;;;;;;;205.57;198.07;;;8.00;99.90;;;;;;6154809;23;20425;-88
2023/03/14 10:12:57;;;;;;;192.13;185.23;;;7.90;99.90;;;;;;6164790;23;20420;-87
2023/03/14 10:15:27;;;;;;;248.43;239.63;;;7.70;99.90;;;;;;6156794;23;20438;-87
2023/03/14 10:18:01;;;;;;;189.37;182.63;;;7.80;99.90;;;;;;6153922;23;20445;-88
2023/03/14 10:20:37;;;;;;;166.50;160.77;;;7.50;99.90;;;;;;6154539;23;20481;-88
2023/03/14 10:23:07;;;;;;;194.40;187.70;;;7.40;99.90;;;;;;6155288;23;20452;-88
2023/03/14 10:25:37;;;;;;;193.50;186.10;;;7.40;99.90;;;;;;6154639;23;20417;-87
2023/03/14 10:28:06;;;;;;;222.63;214.43;;;7.50;99.90;;;;;;6153800;23;20823;-87
2023/03/14 10:30:43;;;;;;;229.30;221.20;;;7.60;99.90;;;;;;6154754;23;20436;-86
2023/03/14 10:33:20;;;;;;;333.47;320.70;;;7.70;99.90;;;;;;6155366;23;20398;-86
2023/03/14 10:35:54;;;;;;;270.03;259.93;;;7.90;99.90;;;;;;6154992;23;20460;-87
2023/03/14 10:38:24;;;;;;;268.40;258.23;;;7.90;99.90;;;;;;6154888;23;20496;-87
2023/03/14 10:40:54;;;;;;;393.93;378.00;;;8.10;99.90;;;;;;6155198;23;20420;-87
2023/03/14 10:43:27;;;;;;;352.40;338.27;;;8.50;99.90;;;;;;6155912;23;20409;-87
2023/03/14 10:45:57;;;;;;;376.90;361.80;;;8.40;99.90;;;;;;6155481;23;20398;-86
2023/03/14 10:48:32;;;;;;;316.67;304.53;;;8.50;99.90;;;;;;6154300;23;20437;-87
2023/03/14 10:51:04;;;;;;;339.43;326.13;;;8.60;99.90;;;;;;6154845;23;20908;-86
2023/03/14 10:53:35;;;;;;;376.07;361.67;;;8.60;99.90;;;;;;6153869;23;20398;-87
2023/03/14 10:56:05;;;;;;;329.70;317.80;;;8.70;99.90;;;;;;6129613;23;20434;-87
2023/03/14 10:58:41;;;;;;;278.93;269.57;;;8.70;99.90;;;;;;6155257;23;20448;-87
2023/03/14 11:01:20;;;;;;;315.70;304.90;;;8.80;99.90;;;;;;6155214;23;20398;-87
2023/03/14 11:03:56;;;;;;;305.37;294.73;;;8.70;99.90;;;;;;6164433;23;20508;-87
2023/03/14 11:06:29;;;;;;;245.00;236.63;;;9.30;99.90;;;;;;6155759;23;20536;-88
2023/03/14 11:09:08;;;;;;;215.57;207.77;;;9.60;99.90;;;;;;6153312;23;20430;-87
2023/03/14 11:11:37;;;;;;;36.63;34.93;;;9.80;99.90;;;;;;6154600;23;20493;-87
2023/03/14 11:14:15;;;;;;;17.10;16.20;;;10.10;99.90;;;;;;6154638;23;20752;-87
2023/03/14 11:17:00;;;;;;;7.20;5.83;;;9.70;99.90;;;;;;6153920;23;20779;-84
2023/03/14 12:01:57;;;;;;;52.20;50.30;;;7.20;99.90;;;;;;6063657;23;1578928;-87
2023/03/14 12:04:40;;;;;;;30.50;29.30;;;7.50;99.90;;;;;;6133012;23;20191;-87
2023/03/14 12:07:26;;;;;;;36.93;35.53;;;7.20;99.90;;;;;;6132232;23;20399;-84
2023/03/14 12:09:56;;;;;;;30.57;29.37;;;6.80;99.90;;;;;;6101695;23;20436;-87
2023/03/14 12:12:32;;;;;;;35.63;34.23;;;6.40;99.90;;;;;;6100619;23;20415;-89
2023/03/14 12:15:01;;;;;;;44.27;42.67;;;6.40;99.90;;;;;;6103837;23;20395;-88
2023/03/14 12:17:38;;;;;;;58.77;56.67;;;6.40;99.90;;;;;;6104149;23;20451;-84
2023/03/14 12:28:26;;;;;;;46.50;44.80;;;6.40;99.90;;;;;;6181494;23;20436;-90
2023/03/14 12:33:35;;;;;;;43.53;41.93;;;6.30;99.90;;;;;;6186330;23;20440;-86
2023/03/14 12:36:51;;;;;;;39.33;37.83;;;6.20;99.90;;;;;;6160124;23;20451;-89
2023/03/14 12:39:47;;;;;;;48.57;46.77;;;6.00;99.90;;;;;;6195780;23;20441;-86
2023/03/14 12:42:21;;;;;;;57.60;55.50;;;5.90;99.90;;;;;;6159486;23;20821;-87
2023/03/14 12:44:50;;;;;;;59.83;57.67;;;6.00;99.90;;;;;;6160505;23;20420;-89
2023/03/14 12:47:51;;;;;;;116.40;112.57;;;6.20;99.90;;;;;;6186866;23;20743;-86
2023/03/14 12:50:37;;;;;;;138.03;133.53;;;6.60;99.90;;;;;;6186046;23;20874;-89
2023/03/14 12:59:40;;;;;;;39.50;37.60;;;7.30;99.90;;;;;;6185229;23;20507;-88
2023/03/14 13:02:29;;;;;;;38.30;36.73;;;7.60;99.90;;;;;;6195096;23;20437;-85
2023/03/14 13:05:11;;;;;;;17.83;16.50;;;8.20;99.90;;;;;;6178676;23;20424;-85
2023/03/14 13:08:12;;;;;;;6.63;5.73;;;9.10;99.90;;;;;;6183084;23;20433;-88
2023/03/14 13:10:48;;;;;;;7.83;2.23;;;9.40;99.90;;;;;;6184628;23;20883;-85
2023/03/14 13:13:22;;;;;;;9.30;2.60;;;7.60;99.90;;;;;;6185523;23;20445;-83
2023/03/14 13:15:58;;;;;;;7.93;1.80;;;6.20;99.90;;;;;;6184960;23;20420;-81
2023/03/14 13:18:29;;;;;;;8.03;2.40;;;5.30;99.90;;;;;;6185157;23;20487;-84
2023/03/14 13:21:25;;;;;;;13.53;4.80;;;5.10;99.90;;;;;;6184577;23;20421;-82
2023/03/14 14:01:59;;;;;;;28.00;18.50;;;7.10;99.90;;;;;;6186445;23;20487;-87
2023/03/14 14:04:33;;;;;;;28.67;27.17;;;7.00;99.90;;;;;;6184970;23;20428;-86
2023/03/14 14:07:13;;;;;;;27.23;18.93;;;7.30;99.90;;;;;;6158804;23;20495;-86
2023/03/14 14:09:51;;;;;;;11.20;8.63;;;7.20;99.90;;;;;;6155020;23;20394;-87
2023/03/14 14:12:24;;;;;;;9.53;4.60;;;7.20;99.90;;;;;;6154020;23;20441;-86
2023/03/14 14:15:00;;;;;;;9.50;6.07;;;7.30;99.90;;;;;;6155550;23;20394;-87
2023/03/14 14:33:29;;;;;;;22.80;6.00;;;7.80;99.90;;;;;;6182453;23;20464;-85
2023/03/14 14:35:59;;;;;;;7.10;3.50;;;8.00;99.90;;;;;;6183483;23;20443;-77
2023/03/14 14:38:26;;;;;;;12.57;3.97;;;7.90;99.90;;;;;;6181719;23;20999;-77
2023/03/14 14:40:56;;;;;;;11.63;4.00;;;8.00;99.90;;;;;;6182751;23;20906;-77
2023/03/14 14:43:28;;;;;;;18.03;4.73;;;8.00;99.90;;;;;;6183258;23;20397;-78
2023/03/14 14:45:57;;;;;;;21.10;4.10;;;7.90;99.90;;;;;;6192120;23;20425;-77
2023/03/14 14:48:28;;;;;;;18.10;3.30;;;8.00;99.90;;;;;;6192793;23;20500;-78
2023/03/14 14:51:02;;;;;;;24.03;4.40;;;8.00;99.90;;;;;;6182170;23;20921;-77
2023/03/14 14:53:31;;;;;;;27.07;3.40;;;8.10;99.90;;;;;;6182417;23;20417;-79
2023/03/14 14:56:08;;;;;;;11.23;2.37;;;8.10;99.90;;;;;;6181974;23;20444;-83
2023/03/14 14:58:38;;;;;;;10.43;2.60;;;8.10;99.90;;;;;;6183340;23;20944;-82
2023/03/14 15:01:09;;;;;;;7.67;1.60;;;8.20;99.90;;;;;;6178241;23;20425;-78
2023/03/14 15:03:37;;;;;;;10.70;2.40;;;8.20;99.90;;;;;;6177343;23;20402;-78
2023/03/14 15:06:06;;;;;;;17.50;3.23;;;8.10;99.90;;;;;;6181707;23;20434;-80
2023/03/14 15:08:33;;;;;;;14.07;2.30;;;8.20;99.90;;;;;;6154701;23;20468;-78
2023/03/14 15:11:00;;;;;;;7.60;1.70;;;8.10;99.90;;;;;;6181704;23;20423;-78
2023/03/14 15:13:27;;;;;;;9.70;1.87;;;8.10;99.90;;;;;;6183102;23;20420;-78
2023/03/14 15:15:55;;;;;;;18.30;3.33;;;8.20;99.90;;;;;;6182911;23;21027;-78
2023/03/14 15:18:24;;;;;;;16.85;3.20;;;8.20;99.90;;;;;;6181598;23;20458;-79
2023/03/14 15:20:53;;;;;;;20.20;2.73;;;8.20;99.90;;;;;;6183023;23;20165;-77
2023/03/14 15:23:23;;;;;;;11.70;2.40;;;8.10;99.90;;;;;;6183283;23;20412;-77
2023/03/14 15:25:50;;;;;;;15.50;3.73;;;8.20;99.90;;;;;;6182789;23;20435;-77
2023/03/14 15:28:19;;;;;;;10.23;2.50;;;8.30;99.90;;;;;;6193607;23;20567;-77
2023/03/14 15:30:47;;;;;;;11.10;2.50;;;8.30;99.90;;;;;;6182425;23;20927;-78
2023/03/14 15:33:14;;;;;;;9.43;1.60;;;8.30;99.90;;;;;;6156258;23;20421;-79
2023/03/14 15:35:41;;;;;;;17.43;2.90;;;8.20;99.90;;;;;;6182507;23;20423;-78
2023/03/14 15:38:22;;;;;;;9.47;1.77;;;8.10;99.90;;;;;;6184066;23;20437;-83
2023/03/14 15:40:50;;;;;;;14.17;2.07;;;8.10;99.90;;;;;;6184231;23;20419;-79
2023/03/14 15:43:18;;;;;;;8.80;3.10;;;8.10;99.90;;;;;;6183594;23;20409;-77
2023/03/14 15:45:45;;;;;;;6.50;1.80;;;8.10;99.90;;;;;;6183395;23;20424;-77
2023/03/14 15:48:17;;;;;;;6.50;1.63;;;7.90;95.50;;;;;;6181890;23;20433;-78
2023/03/14 15:50:44;;;;;;;4.60;1.23;;;7.90;99.90;;;;;;6182639;23;20429;-78
2023/03/14 15:53:12;;;;;;;7.37;1.40;;;7.80;99.20;;;;;;6182596;23;20416;-77
2023/03/14 15:55:40;;;;;;;8.85;1.70;;;7.80;99.90;;;;;;6155579;23;20419;-78
2023/03/14 15:58:11;;;;;;;6.80;2.30;;;7.80;98.70;;;;;;6182742;23;20202;-80
2023/03/14 16:00:38;;;;;;;7.37;1.50;;;7.80;97.80;;;;;;6182569;23;20659;-78
2023/03/14 16:03:05;;;;;;;10.07;1.77;;;7.80;99.90;;;;;;6182475;23;20494;-77
2023/03/14 16:05:32;;;;;;;7.30;1.30;;;7.60;99.90;;;;;;6181017;23;20929;-77
2023/03/14 16:08:01;;;;;;;5.63;1.50;;;7.60;97.10;;;;;;6183077;23;21125;-77
2023/03/14 16:10:28;;;;;;;9.77;1.80;;;7.60;98.50;;;;;;6184047;23;20421;-78
2023/03/14 16:12:56;;;;;;;6.00;1.80;;;7.60;91.90;;;;;;6159056;23;20460;-78
2023/03/14 16:15:26;;;;;;;5.90;1.60;;;7.50;91.70;;;;;;6158115;23;20416;-78
2023/03/14 16:17:53;;;;;;;5.90;1.63;;;7.50;93.80;;;;;;6194078;23;20432;-77
2023/03/14 16:20:20;;;;;;;6.97;1.70;;;7.40;96.30;;;;;;6183680;23;20917;-78
2023/03/14 16:22:47;;;;;;;6.77;1.43;;;7.40;95.20;;;;;;6183274;23;20447;-78
2023/03/14 16:25:17;;;;;;;7.33;1.30;;;7.30;93.10;;;;;;6184690;23;20793;-78
2023/03/14 16:27:44;;;;;;;5.77;1.73;;;7.30;95.50;;;;;;6185156;23;20956;-78
2023/03/14 16:30:18;;;;;;;5.30;1.00;;;7.30;91.80;;;;;;6184460;23;20417;-78
2023/03/14 16:32:48;;;;;;;4.10;1.20;;;7.20;90.30;;;;;;6194066;23;20480;-77
2023/03/14 16:35:17;;;;;;;9.03;2.53;;;7.20;90.10;;;;;;6194628;23;20487;-77
2023/03/14 16:37:43;;;;;;;7.03;1.03;;;7.10;90.60;;;;;;6184239;23;20440;-78
2023/03/14 16:40:13;;;;;;;4.73;1.23;;;7.00;88.50;;;;;;6184401;23;20496;-77
2023/03/14 16:42:40;;;;;;;7.47;1.83;;;6.90;93.10;;;;;;6182711;23;20433;-78
2023/03/14 16:45:16;;;;;;;5.93;1.10;;;6.80;91.60;;;;;;6184422;23;20423;-77
2023/03/14 16:47:44;;;;;;;7.77;1.30;;;6.80;88.60;;;;;;6184092;23;20432;-78
2023/03/14 16:50:11;;;;;;;4.63;1.20;;;6.80;91.90;;;;;;6183792;23;20501;-77
2023/03/14 16:52:38;;;;;;;8.30;1.10;;;6.70;93.20;;;;;;6183946;23;20451;-77
2023/03/14 16:55:06;;;;;;;4.63;1.20;;;6.60;93.40;;;;;;6184589;23;20743;-77
2023/03/14 16:57:33;;;;;;;7.60;1.60;;;6.60;92.60;;;;;;6184030;23;20448;-77
2023/03/14 17:00:00;;;;;;;8.67;2.10;;;6.50;94.40;;;;;;6184916;23;20413;-77
2023/03/14 17:02:27;;;;;;;8.57;1.60;;;6.40;93.90;;;;;;6184228;23;20439;-77
2023/03/14 17:04:56;;;;;;;8.23;1.40;;;6.40;95.00;;;;;;6183993;23;20421;-77
2023/03/14 17:07:23;;;;;;;4.43;1.07;;;6.30;93.40;;;;;;6184050;23;20413;-77
2023/03/14 17:09:50;;;;;;;10.20;1.90;;;6.20;94.40;;;;;;6184262;23;20413;-77
2023/03/14 17:12:17;;;;;;;9.53;2.30;;;6.20;97.00;;;;;;6183689;23;20423;-77
2023/03/14 17:14:50;;;;;;;4.87;1.57;;;6.20;94.90;;;;;;6183896;23;20413;-77
2023/03/14 17:17:19;;;;;;;12.17;2.33;;;6.20;95.60;;;;;;6182959;23;20455;-77
2023/03/14 17:19:45;;;;;;;16.03;2.07;;;6.20;96.60;;;;;;6183076;23;20413;-77
2023/03/14 17:22:14;;;;;;;7.77;2.07;;;6.10;94.70;;;;;;6182715;23;20464;-77
2023/03/14 17:24:40;;;;;;;7.63;1.70;;;6.30;95.20;;;;;;6183845;23;20501;-77
2023/03/14 17:27:09;;;;;;;4.73;1.50;;;6.20;95.60;;;;;;6183489;23;20420;-77
2023/03/14 17:29:36;;;;;;;16.40;2.77;;;6.10;97.40;;;;;;6184383;23;20420;-77
2023/03/14 17:32:03;;;;;;;7.27;1.87;;;6.10;99.30;;;;;;6183280;23;20412;-77
2023/03/14 17:34:31;;;;;;;6.00;1.30;;;6.00;98.60;;;;;;6181465;23;20503;-77
2023/03/14 17:36:58;;;;;;;8.53;1.63;;;6.10;98.90;;;;;;6182795;23;20435;-74